createdAt,value
2023-01-04T00:02:05.719Z,98932.97
2023-01-04T00:04:34.270Z,98927.88
2023-01-04T00:07:02.685Z,98924.47
2023-01-04T00:09:31.219Z,98929.53
2023-01-04T00:11:59.652Z,98935.41
2023-01-04T00:14:28.161Z,98934.53
2023-01-04T00:16:57.968Z,98934.53
2023-01-04T00:19:26.430Z,98928.59
2023-01-04T00:21:54.902Z,98931.13
2023-01-04T00:24:23.531Z,98938.75
2023-01-04T00:26:51.994Z,98934.50
2023-01-04T00:29:20.670Z,98931.09
2023-01-04T00:31:49.343Z,98934.47
2023-01-04T00:34:19.958Z,98927.69
2023-01-04T00:36:48.914Z,98917.56
2023-01-04T00:39:18.182Z,98915.03
2023-01-04T00:42:04.227Z,98899.81
2023-01-04T00:44:34.447Z,98898.09
2023-01-04T00:47:04.840Z,98886.28
2023-01-04T00:49:34.907Z,98875.31
2023-01-04T00:52:04.632Z,98876.16
2023-01-04T00:54:33.103Z,98875.31
2023-01-04T00:57:01.599Z,98881.25
2023-01-04T00:59:30.025Z,98874.47
2023-01-04T01:01:58.722Z,98862.63
2023-01-04T01:04:27.550Z,98871.06
2023-01-04T01:06:57.402Z,98863.47
2023-01-04T01:09:26.105Z,98862.66
2023-01-04T01:11:55.201Z,98864.34
2023-01-04T01:14:26.274Z,98864.34
2023-01-04T01:16:57.773Z,98866.06
2023-01-04T01:19:28.900Z,98860.97
2023-01-04T01:21:59.441Z,98868.56
2023-01-04T01:24:28.380Z,98871.09
2023-01-04T01:26:57.514Z,98856.69
2023-01-04T01:29:26.297Z,98859.22
2023-01-04T01:31:54.880Z,98865.16
2023-01-04T01:34:23.533Z,98858.38
2023-01-04T01:36:51.966Z,98866.03
2023-01-04T01:39:21.812Z,98859.25
2023-01-04T01:41:50.676Z,98852.53
2023-01-04T01:44:59.421Z,98859.31
2023-01-04T01:47:33.163Z,98862.72
2023-01-04T01:50:02.714Z,98859.31
2023-01-04T01:52:33.731Z,98861.03
2023-01-04T01:55:08.515Z,98859.34
2023-01-04T01:57:38.895Z,98856.78
2023-01-04T02:00:12.760Z,98854.25
2023-01-04T02:02:54.744Z,98852.53
2023-01-04T02:05:23.588Z,98851.69
2023-01-04T02:07:52.862Z,98848.31
2023-01-04T02:10:23.790Z,98843.25
2023-01-04T02:12:53.846Z,98849.16
2023-01-04T02:15:28.424Z,98838.16
2023-01-04T02:18:05.738Z,98848.31
2023-01-04T02:20:41.148Z,98837.28
2023-01-04T02:23:45.129Z,98837.31
2023-01-04T02:26:41.950Z,98828.81
2023-01-04T02:29:48.094Z,98835.59
2023-01-04T02:32:27.631Z,98836.44
2023-01-04T02:35:04.441Z,98839.00
2023-01-04T02:37:42.415Z,98835.63
2023-01-04T02:40:19.154Z,98839.00
2023-01-04T02:43:16.038Z,98829.69
2023-01-04T02:45:53.999Z,98822.91
2023-01-04T02:48:41.515Z,98827.97
2023-01-04T02:51:27.587Z,98831.38
2023-01-04T02:53:58.406Z,98833.06
2023-01-04T02:56:38.809Z,98824.59
2023-01-04T02:59:24.279Z,98821.22
2023-01-04T03:02:20.253Z,98835.53
2023-01-04T03:05:18.497Z,98833.84
2023-01-04T03:07:53.387Z,98834.69
2023-01-04T03:10:27.241Z,98836.38
2023-01-04T03:13:02.246Z,98826.19
2023-01-04T03:15:34.913Z,98823.63
2023-01-04T03:18:11.151Z,98825.31
2023-01-04T03:20:43.605Z,98825.28
2023-01-04T03:23:34.158Z,98826.09
2023-01-04T03:26:25.054Z,98814.25
2023-01-04T03:29:12.848Z,98810.03
2023-01-04T03:32:03.234Z,98801.59
2023-01-04T03:34:49.186Z,98795.72
2023-01-04T03:37:25.465Z,98798.25
2023-01-04T03:40:24.113Z,98797.44
2023-01-04T03:43:18.628Z,98785.53
2023-01-04T03:46:09.236Z,98783.03
2023-01-04T03:48:44.299Z,98761.84
2023-01-04T03:51:16.118Z,98767.78
2023-01-04T03:53:53.790Z,98756.75
2023-01-04T03:56:24.967Z,98749.97
2023-01-04T03:58:54.657Z,98738.97
2023-01-04T04:01:26.017Z,98744.00
2023-01-04T04:04:12.490Z,98749.09
2023-01-04T04:06:58.897Z,98754.13
2023-01-04T04:09:28.746Z,98750.72
2023-01-04T04:11:57.605Z,98756.63
2023-01-04T04:14:26.137Z,98761.69
2023-01-04T04:16:54.755Z,98756.63
2023-01-04T04:19:23.337Z,98765.88
2023-01-04T04:21:51.791Z,98770.09
2023-01-04T04:24:21.762Z,98768.38
2023-01-04T04:26:51.702Z,98777.69
2023-01-04T04:29:20.177Z,98764.16
2023-01-04T04:31:48.831Z,98763.25
2023-01-04T04:34:17.443Z,98761.53
2023-01-04T04:36:45.994Z,98753.06
2023-01-04T04:39:14.580Z,98752.22
2023-01-04T04:41:42.165Z,98748.75
2023-01-04T04:44:14.272Z,98752.09
2023-01-04T04:46:42.937Z,98749.56
2023-01-04T04:49:13.636Z,98747.03
2023-01-04T04:51:42.687Z,98743.69
2023-01-04T04:54:12.839Z,98736.13
2023-01-04T04:56:41.319Z,98740.34
2023-01-04T04:59:09.801Z,98745.44
2023-01-04T05:01:39.862Z,98752.19
2023-01-04T05:04:08.639Z,98742.00
2023-01-04T05:06:37.115Z,98753.84
2023-01-04T05:09:05.602Z,98747.13
2023-01-04T05:11:52.119Z,98753.00
2023-01-04T05:14:20.706Z,98752.16
2023-01-04T05:16:50.665Z,98750.44
2023-01-04T05:19:19.288Z,98747.91
2023-01-04T05:21:47.793Z,98750.50
2023-01-04T05:24:16.283Z,98746.25
2023-01-04T05:26:44.948Z,98747.97
2023-01-04T05:29:34.258Z,98744.56
2023-01-04T05:32:03.357Z,98738.69
2023-01-04T05:34:31.878Z,98727.69
2023-01-04T05:37:00.374Z,98698.94
2023-01-04T05:39:30.814Z,98731.97
2023-01-04T05:42:17.077Z,98722.66
2023-01-04T05:44:45.576Z,98728.63
2023-01-04T05:47:15.526Z,98725.22
2023-01-04T05:49:44.101Z,98721.91
2023-01-04T05:52:12.820Z,98715.13
2023-01-04T05:54:41.573Z,98717.72
2023-01-04T05:57:10.696Z,98717.72
2023-01-04T05:59:42.081Z,98717.75
2023-01-04T06:02:18.808Z,98710.19
2023-01-04T06:04:51.489Z,98707.63
2023-01-04T06:07:23.878Z,98701.72
2023-01-04T06:09:52.415Z,98692.41
2023-01-04T06:12:20.864Z,98704.25
2023-01-04T06:14:49.525Z,98708.50
2023-01-04T06:17:19.579Z,98708.50
2023-01-04T06:19:48.099Z,98718.69
2023-01-04T06:22:16.664Z,98711.91
2023-01-04T06:24:45.235Z,98709.38
2023-01-04T06:27:13.795Z,98711.91
2023-01-04T06:29:42.245Z,98708.53
2023-01-04T06:32:10.819Z,98718.69
2023-01-04T06:34:40.658Z,98707.66
2023-01-04T06:37:09.792Z,98706.84
2023-01-04T06:39:38.347Z,98708.50
2023-01-04T06:42:27.145Z,98712.75
2023-01-04T06:44:55.608Z,98711.91
2023-01-04T06:47:24.044Z,98711.09
2023-01-04T06:49:53.966Z,98701.78
2023-01-04T06:52:22.565Z,98698.41
2023-01-04T06:54:51.004Z,98692.47
2023-01-04T06:57:19.465Z,98695.06
2023-01-04T06:59:48.102Z,98694.22
2023-01-04T07:02:17.503Z,98700.13
2023-01-04T07:04:46.080Z,98689.13
2023-01-04T07:07:15.951Z,98675.59
2023-01-04T07:09:44.416Z,98688.28
2023-01-04T07:12:12.893Z,98695.91
2023-01-04T07:14:41.928Z,98695.91
2023-01-04T07:17:10.375Z,98705.22
2023-01-04T07:19:38.929Z,98711.97
2023-01-04T07:22:07.502Z,98699.28
2023-01-04T07:24:37.353Z,98696.72
2023-01-04T07:27:05.848Z,98699.25
2023-01-04T07:29:34.343Z,98693.34
2023-01-04T07:32:02.996Z,98699.25
2023-01-04T07:34:31.516Z,98700.06
2023-01-04T07:36:59.971Z,98705.16
2023-01-04T07:39:28.455Z,98710.22
2023-01-04T07:41:58.309Z,98707.66
2023-01-04T07:44:28.087Z,98712.75
2023-01-04T07:46:57.554Z,98713.59
2023-01-04T07:49:26.063Z,98708.50
2023-01-04T07:51:54.605Z,98698.31
2023-01-04T07:54:24.029Z,98702.56
2023-01-04T07:56:52.755Z,98688.94
2023-01-04T07:59:23.278Z,98700.81
2023-01-04T08:01:52.109Z,98692.31
2023-01-04T08:04:27.145Z,98684.66
2023-01-04T08:06:58.218Z,98690.53
2023-01-04T08:09:26.916Z,98688.81
2023-01-04T08:11:55.439Z,98682.84
2023-01-04T08:14:25.237Z,98687.06
2023-01-04T08:16:53.772Z,98689.59
2023-01-04T08:19:22.855Z,98681.09
2023-01-04T08:21:51.371Z,98679.38
2023-01-04T08:24:22.319Z,98676.75
2023-01-04T08:26:50.932Z,98672.53
2023-01-04T08:29:19.466Z,98669.94
2023-01-04T08:31:49.454Z,98672.44
2023-01-04T08:34:18.047Z,98669.84
2023-01-04T08:36:49.253Z,98670.66
2023-01-04T08:39:18.005Z,98677.41
2023-01-04T08:44:42.723Z,98656.16
2023-01-04T08:47:12.594Z,98655.25
2023-01-04T08:49:41.041Z,98646.72
2023-01-04T08:52:11.681Z,98647.56
2023-01-04T08:54:40.289Z,98640.69
2023-01-04T08:57:08.819Z,98639.00
2023-01-04T08:59:37.338Z,98644.03
2023-01-04T09:02:11.385Z,98647.41
2023-01-04T09:04:41.557Z,98651.59
2023-01-04T09:07:10.094Z,98654.06
2023-01-04T09:09:38.589Z,98651.50
2023-01-04T09:12:07.490Z,98639.56
2023-01-04T09:14:36.545Z,98638.69
2023-01-04T09:17:05.570Z,98642.00
2023-01-04T09:19:34.216Z,98620.69
2023-01-04T09:22:04.215Z,98615.34
2023-01-04T09:24:33.737Z,98621.13
2023-01-04T09:27:03.069Z,98612.41
2023-01-04T09:29:31.682Z,98616.41
2023-01-04T09:32:00.304Z,98623.00
2023-01-04T09:34:29.146Z,98621.06
2023-01-04T09:36:57.675Z,98619.19
2023-01-04T09:39:30.420Z,98622.41
2023-01-04T09:42:01.396Z,98614.53
2023-01-04T09:47:38.032Z,98610.72
2023-01-04T09:50:13.964Z,98604.59
2023-01-04T09:52:52.313Z,98602.69
2023-01-04T09:55:37.412Z,98603.31
2023-01-04T09:58:23.220Z,98592.97
2023-01-04T10:00:56.646Z,98591.88
2023-01-04T10:03:28.837Z,98581.44
2023-01-04T10:05:58.059Z,98582.94
2023-01-04T10:08:26.665Z,98581.19
2023-01-04T10:11:08.679Z,98581.03
2023-01-04T10:13:53.365Z,98580.13
2023-01-04T10:16:44.613Z,98586.00
2023-01-04T10:22:26.737Z,98578.97
2023-01-04T10:25:07.354Z,98579.69
2023-01-04T10:27:48.273Z,98568.53
2023-01-04T10:30:30.371Z,98570.06
2023-01-04T10:33:11.038Z,98572.50
2023-01-04T10:35:40.978Z,98569.84
2023-01-04T10:38:13.957Z,98562.91
2023-01-04T10:40:42.867Z,98564.44
2023-01-04T10:43:20.468Z,98554.06
2023-01-04T10:45:55.362Z,98542.75
2023-01-04T10:48:32.182Z,98541.81
2023-01-04T10:51:09.374Z,98547.63
2023-01-04T10:53:45.360Z,98542.31
2023-01-04T10:56:26.033Z,98536.19
2023-01-04T10:59:04.524Z,98537.63
2023-01-04T11:01:39.452Z,98522.09
2023-01-04T11:04:14.842Z,98510.78
2023-01-04T11:06:48.020Z,98508.84
2023-01-04T11:09:25.065Z,98515.47
2023-01-04T11:11:57.735Z,98515.28
2023-01-04T11:14:33.343Z,98515.94
2023-01-04T11:17:08.257Z,98507.25
2023-01-04T11:19:37.680Z,98503.63
2023-01-04T11:22:15.396Z,98496.41
2023-01-04T11:25:07.779Z,98501.31
2023-01-04T11:27:42.890Z,98497.53
2023-01-04T11:30:18.439Z,98491.06
2023-01-04T11:32:54.012Z,98492.53
2023-01-04T11:35:42.568Z,98502.44
2023-01-04T11:38:16.750Z,98491.66
2023-01-04T11:41:05.645Z,98500.06
2023-01-04T11:43:35.590Z,98488.75
2023-01-04T11:46:06.624Z,98483.34
2023-01-04T11:48:38.798Z,98464.66
2023-01-04T11:51:19.038Z,98462.53
2023-01-04T11:53:57.240Z,98459.66
2023-01-04T11:56:27.669Z,98472.13
2023-01-04T11:59:11.879Z,98454.28
2023-01-04T12:01:44.803Z,98466.28
2023-01-04T12:04:16.498Z,98464.75
2023-01-04T12:06:51.142Z,98464.28
2023-01-04T12:09:21.423Z,98465.63
2023-01-04T12:11:52.022Z,98465.25
2023-01-04T12:14:26.138Z,98460.59
2023-01-04T12:17:05.268Z,98464.94
2023-01-04T12:19:34.863Z,98456.09
2023-01-04T12:22:05.661Z,98458.59
2023-01-04T12:24:35.517Z,98455.00
2023-01-04T12:27:04.487Z,98448.13
2023-01-04T12:29:41.804Z,98450.69
2023-01-04T12:32:41.909Z,98441.41
2023-01-04T12:35:43.762Z,98430.81
2023-01-04T12:38:12.583Z,98436.84
2023-01-04T12:40:55.271Z,98441.19
2023-01-04T12:43:28.196Z,98444.53
2023-01-04T12:46:59.914Z,98457.25
2023-01-04T12:49:52.336Z,98452.13
2023-01-04T12:52:55.351Z,98456.88
2023-01-04T12:55:54.155Z,98440.59
2023-01-04T13:01:31.352Z,98438.44
2023-01-04T13:04:06.172Z,98435.06
2023-01-04T13:06:46.205Z,98430.59
2023-01-04T13:09:24.030Z,98430.66
2023-01-04T13:12:07.389Z,98424.56
2023-01-04T13:14:40.595Z,98414.50
2023-01-04T13:17:21.855Z,98414.28
2023-01-04T13:19:50.942Z,98423.63
2023-01-04T13:22:29.760Z,98400.53
2023-01-04T13:25:01.719Z,98402.09
2023-01-04T13:27:30.229Z,98399.44
2023-01-04T13:29:59.099Z,98390.97
2023-01-04T13:32:29.975Z,98398.91
2023-01-04T13:35:05.743Z,98392.75
2023-01-04T13:37:43.411Z,98381.69
2023-01-04T13:40:26.837Z,98384.03
2023-01-04T13:43:11.702Z,98384.81
2023-01-04T13:45:52.918Z,98379.31
2023-01-04T13:48:23.886Z,98365.56
2023-01-04T13:51:04.051Z,98376.47
2023-01-04T13:53:34.089Z,98360.59
2023-01-04T13:56:04.105Z,98361.84
2023-01-04T13:58:34.270Z,98357.44
2023-01-04T14:01:05.634Z,98354.22
2023-01-04T14:03:38.520Z,98359.44
2023-01-04T14:06:18.144Z,98354.50
2023-01-04T14:08:54.152Z,98362.75
2023-01-04T14:11:42.016Z,98357.13
2023-01-04T14:14:23.853Z,98354.22
2023-01-04T14:17:05.167Z,98348.91
2023-01-04T14:19:42.621Z,98347.78
2023-01-04T14:22:39.246Z,98350.03
2023-01-04T14:25:56.464Z,98343.88
2023-01-04T14:28:49.435Z,98339.34
2023-01-04T14:31:35.818Z,98344.44
2023-01-04T14:34:12.155Z,98335.03
2023-01-04T14:36:43.209Z,98343.72
2023-01-04T14:39:26.790Z,98348.88
2023-01-04T14:41:57.562Z,98355.09
2023-01-04T14:44:30.884Z,98350.19
2023-01-04T14:47:01.333Z,98349.03
2023-01-04T14:49:31.397Z,98349.19
2023-01-04T14:52:01.836Z,98354.25
2023-01-04T14:54:31.751Z,98349.94
2023-01-04T14:57:00.490Z,98348.47
2023-01-04T14:59:30.426Z,98353.63
2023-01-04T15:01:59.437Z,98352.66
2023-01-04T15:04:28.027Z,98358.97
2023-01-04T15:06:58.949Z,98354.91
2023-01-04T15:09:28.044Z,98362.56
2023-01-04T15:11:56.896Z,98365.38
2023-01-04T15:14:25.674Z,98360.06
2023-01-04T15:16:55.512Z,98361.69
2023-01-04T15:19:23.999Z,98352.94
2023-01-04T15:21:52.523Z,98350.13
2023-01-04T15:24:21.263Z,98344.28
2023-01-04T15:26:49.915Z,98347.97
2023-01-04T15:29:18.473Z,98351.44
2023-01-04T15:31:47.028Z,98350.69
2023-01-04T15:34:17.968Z,98341.13
2023-01-04T15:36:46.537Z,98345.44
2023-01-04T15:39:15.599Z,98346.34
2023-01-04T15:42:01.451Z,98336.69
2023-01-04T15:44:29.947Z,98339.00
2023-01-04T15:46:59.397Z,98321.16
2023-01-04T15:49:31.588Z,98321.25
2023-01-04T15:52:00.124Z,98315.31
2023-01-04T15:54:29.364Z,98309.31
2023-01-04T15:56:57.913Z,98306.84
2023-01-04T15:59:26.666Z,98302.47
2023-01-04T16:01:55.854Z,98309.44
2023-01-04T16:04:25.686Z,98315.25
2023-01-04T16:06:55.623Z,98308.09
2023-01-04T16:09:24.418Z,98307.16
2023-01-04T16:12:10.890Z,98304.72
2023-01-04T16:14:39.615Z,98298.03
2023-01-04T16:17:08.144Z,98301.50
2023-01-04T16:19:36.893Z,98298.84
2023-01-04T16:22:07.016Z,98303.81
2023-01-04T16:25:09.160Z,98301.16
2023-01-04T16:27:23.846Z,98274.00
2023-01-04T16:29:52.494Z,98290.66
2023-01-04T16:32:25.855Z,98273.28
2023-01-04T16:34:54.671Z,98287.19
2023-01-04T16:37:28.032Z,98293.94
2023-01-04T16:40:06.294Z,98282.56
2023-01-04T16:42:36.985Z,98287.94
2023-01-04T16:45:06.915Z,98283.63
2023-01-04T16:47:39.921Z,98275.75
2023-01-04T16:50:09.702Z,98280.56
2023-01-04T16:52:40.441Z,98275.97
2023-01-04T16:55:10.743Z,98267.81
2023-01-04T16:57:39.652Z,98272.19
2023-01-04T17:00:09.767Z,98260.25
2023-01-04T17:02:39.116Z,98254.28
2023-01-04T17:05:08.769Z,98245.72
2023-01-04T17:07:37.585Z,98246.88
2023-01-04T17:10:08.549Z,98249.09
2023-01-04T17:12:52.786Z,98240.03
2023-01-04T17:18:12.396Z,98239.34
2023-01-04T17:20:41.385Z,98237.44
2023-01-04T17:23:10.018Z,98232.00
2023-01-04T17:25:40.041Z,98251.09
2023-01-04T17:28:08.578Z,98242.53
2023-01-04T17:30:39.430Z,98246.03
2023-01-04T17:33:07.931Z,98242.44
2023-01-04T17:35:36.887Z,98226.94
2023-01-04T17:38:06.198Z,98207.41
2023-01-04T17:40:35.955Z,98225.97
2023-01-04T17:43:05.700Z,98222.50
2023-01-04T17:45:34.258Z,98252.00
2023-01-04T17:48:02.901Z,98231.69
2023-01-04T17:50:31.338Z,98215.66
2023-01-04T17:53:00.652Z,98210.28
2023-01-04T17:55:29.290Z,98205.41
2023-01-04T17:57:58.464Z,98209.59
2023-01-04T18:00:28.360Z,98206.25
2023-01-04T18:02:56.680Z,98207.22
2023-01-04T18:05:25.243Z,98203.81
2023-01-04T18:07:53.728Z,98199.78
2023-01-04T18:10:40.747Z,98192.00
2023-01-04T18:13:11.019Z,98204.44
2023-01-04T18:15:54.957Z,98196.06
2023-01-04T18:18:29.561Z,98202.28
2023-01-04T18:20:59.225Z,98204.09
2023-01-04T18:23:30.648Z,98215.34
2023-01-04T18:26:02.581Z,98205.25
2023-01-04T18:28:31.361Z,98195.28
2023-01-04T18:31:01.520Z,98209.22
2023-01-04T18:33:30.245Z,98202.28
2023-01-04T18:36:02.897Z,98200.06
2023-01-04T18:38:31.718Z,98194.69
2023-01-04T18:41:00.380Z,98192.31
2023-01-04T18:43:29.149Z,98182.69
2023-01-04T18:45:57.700Z,98172.53
2023-01-04T18:48:28.026Z,98182.47
2023-01-04T18:51:03.012Z,98175.72
2023-01-04T18:53:31.731Z,98178.16
2023-01-04T18:56:00.559Z,98193.72
2023-01-04T18:58:30.087Z,98186.31
2023-01-04T19:01:02.408Z,98186.56
2023-01-04T19:03:34.442Z,98191.47
2023-01-04T19:06:07.218Z,98202.03
2023-01-04T19:08:36.734Z,98209.03
2023-01-04T19:11:05.768Z,98202.09
2023-01-04T19:13:34.906Z,98202.16
2023-01-04T19:16:03.438Z,98203.78
2023-01-04T19:18:33.401Z,98191.78
2023-01-04T19:21:02.837Z,98199.66
2023-01-04T19:23:31.750Z,98192.13
2023-01-04T19:26:00.744Z,98201.63
2023-01-04T19:28:29.252Z,98190.13
2023-01-04T19:30:57.862Z,98201.97
2023-01-04T19:33:26.443Z,98187.22
2023-01-04T19:35:56.273Z,98191.53
2023-01-04T19:38:24.618Z,98185.59
2023-01-04T19:40:56.388Z,98189.06
2023-01-04T19:43:25.043Z,98200.31
2023-01-04T19:45:53.764Z,98195.25
2023-01-04T19:48:23.846Z,98193.63
2023-01-04T19:51:04.569Z,98196.13
2023-01-04T19:53:33.168Z,98203.09
2023-01-04T19:56:02.022Z,98202.91
2023-01-04T19:58:30.958Z,98206.44
2023-01-04T20:01:00.097Z,98218.28
2023-01-04T20:03:29.026Z,98220.19
2023-01-04T20:06:04.448Z,98215.31
2023-01-04T20:08:33.451Z,98217.81
2023-01-04T20:11:03.441Z,98219.53
2023-01-04T20:13:33.287Z,98234.34
2023-01-04T20:16:04.054Z,98220.47
2023-01-04T20:18:34.320Z,98220.31
2023-01-04T20:21:09.412Z,98229.19
2023-01-04T20:23:38.922Z,98208.47
2023-01-04T20:26:11.629Z,98209.50
2023-01-04T20:28:41.881Z,98207.69
2023-01-04T20:31:12.592Z,98215.22
2023-01-04T20:33:41.467Z,98224.09
2023-01-04T20:36:14.060Z,98233.38
2023-01-04T20:38:44.572Z,98236.22
2023-01-04T20:41:16.177Z,98243.97
2023-01-04T20:43:45.219Z,98232.72
2023-01-04T20:46:15.701Z,98249.13
2023-01-04T20:48:44.814Z,98252.31
2023-01-04T20:51:17.311Z,98235.94
2023-01-04T20:53:46.552Z,98251.53
2023-01-04T20:56:17.061Z,98244.94
2023-01-04T20:58:46.603Z,98236.84
2023-01-04T21:01:16.444Z,98233.50
2023-01-04T21:03:45.622Z,98223.16
2023-01-04T21:06:17.662Z,98213.13
2023-01-04T21:08:47.881Z,98216.44
2023-01-04T21:11:16.495Z,98225.91
2023-01-04T21:13:45.709Z,98219.00
2023-01-04T21:16:15.292Z,98221.03
2023-01-04T21:18:44.251Z,98204.03
2023-01-04T21:21:16.991Z,98216.78
2023-01-04T21:23:45.870Z,98223.81
2023-01-04T21:26:16.381Z,98195.22
2023-01-04T21:28:46.029Z,98228.16
2023-01-04T21:31:16.603Z,98230.72
2023-01-04T21:33:46.741Z,98230.78
2023-01-04T21:36:19.142Z,98219.06
2023-01-04T21:38:49.339Z,98236.97
2023-01-04T21:41:18.349Z,98209.59
2023-01-04T21:43:46.998Z,98225.63
2023-01-04T21:46:16.543Z,98217.25
2023-01-04T21:48:48.111Z,98215.53
2023-01-04T21:51:18.724Z,98220.53
2023-01-04T21:53:47.626Z,98217.06
2023-01-04T21:56:18.836Z,98206.94
2023-01-04T21:58:47.885Z,98218.88
2023-01-04T22:01:18.956Z,98221.56
2023-01-04T22:03:48.028Z,98218.88
2023-01-04T22:06:18.888Z,98198.28
2023-01-04T22:08:48.120Z,98195.03
2023-01-04T22:11:17.157Z,98201.22
2023-01-04T22:13:45.858Z,98196.00
2023-01-04T22:16:16.143Z,98195.22
2023-01-04T22:18:48.051Z,98189.34
2023-01-04T22:21:20.635Z,98192.69
2023-01-04T22:23:49.213Z,98193.50
2023-01-04T22:26:17.842Z,98177.06
2023-01-04T22:28:47.058Z,98191.59
2023-01-04T22:31:15.953Z,98207.06
2023-01-04T22:33:44.610Z,98158.31
2023-01-04T22:36:21.769Z,98165.31
2023-01-04T22:38:53.852Z,98158.34
2023-01-04T22:41:24.264Z,98153.16
2023-01-04T22:43:57.552Z,98156.59
2023-01-04T22:46:27.484Z,98154.19
2023-01-04T22:48:56.325Z,98142.06
2023-01-04T22:51:27.273Z,98147.66
2023-01-04T22:53:59.049Z,98148.22
2023-01-04T22:56:28.578Z,98153.56
2023-01-04T22:58:58.729Z,98159.41
2023-01-04T23:01:29.254Z,98153.66
2023-01-04T23:03:59.694Z,98147.72
2023-01-04T23:06:29.400Z,98151.84
2023-01-04T23:09:01.368Z,98158.56
2023-01-04T23:11:31.601Z,98154.41
2023-01-04T23:14:02.187Z,98165.53
2023-01-04T23:16:32.972Z,98148.25
2023-01-04T23:19:02.702Z,98154.94
2023-01-04T23:21:31.237Z,98130.84
2023-01-04T23:24:01.950Z,98135.78
2023-01-04T23:26:31.393Z,98117.72
2023-01-04T23:29:00.717Z,98121.31
2023-01-04T23:31:31.720Z,98126.38
2023-01-04T23:34:02.528Z,98124.94
2023-01-04T23:36:33.349Z,98107.66
2023-01-04T23:39:06.389Z,98115.13
2023-01-04T23:41:47.553Z,98112.56
2023-01-04T23:44:19.227Z,98115.00
2023-01-04T23:46:51.220Z,98113.03
2023-01-04T23:49:19.678Z,98104.69
2023-01-04T23:51:48.386Z,98102.72
2023-01-04T23:54:18.526Z,98092.09
2023-01-04T23:56:47.198Z,98080.72
2023-01-04T23:59:15.705Z,98082.50
